Latest Weather Observations for East Sale

IDV60801

Issued at 12:05 am EST Friday 25 April 2014 (issued every 30 minutes, with the page automatically refreshed every 10 minutes)

About weather observations | Map of weather stations | Latest weather observations for VIC | Other Formats
Station Details ID: 085072 Name: EAST SALE AIRPORT Lat: -38.12 Lon: 147.13 Height: 4.6 m
Data from the previous 72 hours. | See also: Recent months at East Sale
Date/Time
EST
Temp
°C
App
Temp
°C
Dew
Point
Rel
Hum
%
Delta-T
°C
Wind Press
QNH
hPa
Press
MSL
hPa
Rain
since 9 am
mm
Dir
 
Spd
km/h
Gust
km/h
Spd
kts
Gust
kts
25/12:00am 3.4 -0.6 2.7 95 0.3 NNW 13 15 7 8 1022.4 1022.4 0.0
 
Date/Time
EST
Temp
°C
App
Temp
°C
Dew
Point
Rel
Hum
%
Delta-T
°C
Wind Press
QNH
hPa
Press
MSL
hPa
Rain
since 9 am
mm
Dir
 
Spd
km/h
Gust
km/h
Spd
kts
Gust
kts
24/11:30pm 4.7 1.2 3.7 93 0.4 NW 11 13 6 7 1022.4 - 0.0
24/11:00pm 4.7 1.2 3.7 93 0.4 WNW 11 15 6 8 1022.6 - 0.0
24/10:30pm 5.0 2.3 3.8 92 0.5 W 7 9 4 5 1022.5 - 0.0
24/10:00pm 6.1 2.3 4.0 86 0.9 WNW 13 13 7 7 1022.4 - 0.0
24/09:30pm 6.2 2.8 3.8 85 1.0 WNW 11 13 6 7 1022.2 - 0.0
24/09:00pm 6.4 3.3 3.6 82 1.2 NW 9 11 5 6 1022.0 1022.0 0.0
24/08:30pm 6.8 3.8 4.0 82 1.2 WNW 9 11 5 6 1021.6 - 0.0
24/08:00pm 8.0 5.4 4.1 76 1.7 SW 7 9 4 5 1021.2 - 0.0
24/07:30pm 8.5 5.5 3.9 73 2.0 WNW 9 11 5 6 1020.8 - 0.0
24/07:25pm 9.6 6.5 3.6 66 2.6 WNW 9 11 5 6 1020.9 - 0.0
24/07:08pm 9.5 5.7 4.0 68 2.4 WSW 13 15 7 8 1020.6 - 0.0
24/07:02pm 10.3 6.5 4.0 65 2.8 W 13 15 7 8 1020.5 - 0.0
24/07:00pm 10.3 6.9 4.0 65 2.8 W 11 15 6 8 1020.6 - 0.0
24/06:36pm 10.4 6.3 4.1 65 2.8 WSW 15 17 8 9 1020.3 - 0.0
24/06:30pm 10.8 7.1 4.3 64 2.9 W 13 17 7 9 1020.3 - 0.0
24/06:19pm 11.3 7.5 3.9 60 3.3 W 13 17 7 9 1020.1 - 0.0
24/06:00pm 11.7 7.5 3.9 59 3.5 WSW 15 20 8 11 1019.6 1019.6 0.0
24/05:44pm 12.2 8.4 4.0 57 3.7 WSW 13 20 7 11 1019.3 - 0.0
24/05:30pm 12.5 8.3 3.8 55 3.9 WSW 15 19 8 10 1019.1 - 0.0
24/05:00pm 13.5 8.0 4.0 52 4.3 W 22 32 12 17 1018.4 - 0.0
24/04:37pm 14.6 8.1 2.4 43 5.4 W 26 37 14 20 1017.9 - 0.0
24/04:30pm 14.8 8.6 2.1 42 5.6 WSW 24 35 13 19 1017.9 - 0.0
24/04:19pm 15.0 8.1 2.4 42 5.6 WSW 28 39 15 21 1017.7 - 0.0
24/04:00pm 15.5 9.0 2.9 42 5.7 WSW 26 37 14 20 1017.3 - 0.0
24/03:30pm 16.0 8.3 2.1 39 6.2 W 32 48 17 26 1017.0 - 0.0
24/03:00pm 16.6 8.4 2.7 39 6.3 W 35 46 19 25 1016.6 1016.6 0.0
24/02:37pm 16.6 8.3 2.1 37 6.5 W 35 54 19 29 1016.2 - 0.0
24/02:30pm 16.2 7.1 1.8 38 6.4 W 39 54 21 29 1016.0 - 0.0
24/02:14pm 16.2 8.6 2.7 40 6.1 W 32 56 17 30 1015.9 - 0.0
24/02:00pm 16.2 8.8 1.8 38 6.4 WSW 30 43 16 23 1016.0 - 0.0
24/01:30pm 15.8 7.4 3.6 44 5.6 W 37 57 20 31 1015.6 - 0.0
24/01:09pm 16.2 9.0 5.0 47 5.3 WSW 32 50 17 27 1015.4 - 0.0
24/01:00pm 16.1 9.1 6.0 51 4.9 W 32 46 17 25 1015.3 - 0.0
24/12:45pm 16.1 9.9 7.7 57 4.2 W 30 48 16 26 1015.1 - 0.0
24/12:30pm 14.9 9.7 10.3 74 2.4 W 28 39 15 21 1014.9 - 0.0
24/12:00pm 14.2 10.0 11.0 81 1.7 W 24 35 13 19 1014.9 1014.9 0.0
24/11:55am 14.1 9.5 10.9 81 1.7 W 26 35 14 19 1015.0 - 0.0
24/11:30am 13.6 8.0 10.3 80 1.7 W 30 43 16 23 1014.9 - 0.0
24/11:22am 13.5 7.4 9.8 78 1.9 W 32 44 17 24 1014.8 - 0.0
24/11:00am 13.6 7.6 10.9 84 1.4 W 33 48 18 26 1014.6 - 0.0
24/10:30am 13.1 8.1 11.0 87 1.1 W 28 35 15 19 1014.2 - 0.0
24/10:00am 12.4 9.4 9.2 81 1.6 W 15 22 8 12 1013.8 - 0.0
24/09:30am 11.9 10.1 9.5 85 1.2 W 9 13 5 7 1013.0 - 0.0
24/09:15am 12.1 10.5 8.9 81 1.6 W 7 11 4 6 1012.5 - 0.0
24/09:00am 12.3 10.8 9.1 81 1.6 WNW 7 9 4 5 1012.3 1012.3 0.2
24/08:30am 11.6 10.7 9.2 85 1.2 WNW 4 6 2 3 1011.9 - 0.2
24/08:00am 10.1 8.6 9.1 93 0.5 W 7 9 4 5 1011.5 - 0.2
24/07:47am 9.1 6.7 8.5 96 0.3 WSW 11 17 6 9 1011.5 - 0.2
24/07:30am 8.2 6.0 7.8 97 0.2 SSW 9 15 5 8 1011.2 - 0.2
24/07:00am 5.9 3.6 5.7 99 0.1 WNW 7 9 4 5 1010.7 - 0.2
24/06:30am 6.3 3.7 6.3 100 0.0 NW 9 11 5 6 1010.5 - 0.2
24/06:00am 6.3 3.7 5.9 97 0.2 NW 9 11 5 6 1010.5 1010.5 0.2
24/05:42am 6.1 2.4 6.1 100 0.0 WNW 15 17 8 9 1010.6 - 0.2
24/05:30am 6.1 2.7 5.9 99 0.1 W 13 15 7 8 1010.5 - 0.2
24/05:00am 5.9 3.2 5.7 99 0.1 W 9 13 5 7 1010.4 - 0.2
24/04:30am 6.1 3.8 5.6 97 0.2 NW 7 9 4 5 1010.3 - 0.2
24/04:16am 5.8 3.1 5.8 100 0.0 NW 9 11 5 6 1010.3 - 0.2
24/04:00am 6.0 3.4 6.0 100 0.0 NNW 9 11 5 6 1010.3 - 0.2
24/03:33am 7.4 5.4 7.2 99 0.1 NW 7 9 4 5 1010.4 - 0.2
24/03:30am 7.5 5.5 7.3 99 0.1 NW 7 7 4 4 1010.4 - 0.2
24/03:25am 7.5 5.5 7.3 99 0.1 NW 7 9 4 5 1010.5 - 0.2
24/03:04am 8.3 5.8 8.1 99 0.1 NW 11 13 6 7 1010.6 - 0.2
24/03:00am 8.4 5.9 8.2 99 0.1 NNW 11 13 6 7 1010.6 1010.6 0.2
24/02:50am 8.4 6.3 8.2 99 0.1 NW 9 11 5 6 1010.6 - 0.2
24/02:46am 8.3 6.2 8.1 99 0.1 NW 9 11 5 6 1010.6 - 0.2
24/02:30am 8.0 5.4 7.8 99 0.1 NW 11 15 6 8 1010.9 - 0.2
24/02:29am 8.0 5.4 7.8 99 0.1 WNW 11 15 6 8 1011.0 - 0.2
24/02:25am 8.1 5.9 7.9 99 0.1 WNW 9 13 5 7 1011.1 - 0.2
24/02:03am 8.1 5.9 7.9 99 0.1 NNW 9 11 5 6 1011.3 - 0.2
24/02:02am 8.1 5.9 7.9 99 0.1 NNW 9 11 5 6 1011.3 - 0.2
24/02:00am 8.1 5.9 7.7 97 0.2 NW 9 11 5 6 1011.3 - 0.2
24/01:30am 8.0 5.8 7.8 99 0.1 NNW 9 9 5 5 1011.6 - 0.2
24/01:28am 8.0 5.8 7.8 99 0.1 NNW 9 9 5 5 1011.6 - 0.2
24/01:27am 8.0 5.8 7.8 99 0.1 NNW 9 9 5 5 1011.6 - 0.2
24/01:26am 8.0 5.8 8.0 100 0.0 NNW 9 9 5 5 1011.7 - 0.2
24/01:14am 8.1 6.3 7.9 99 0.1 WNW 7 9 4 5 1011.8 - 0.2
24/01:00am 8.2 7.3 7.8 97 0.2 W 2 9 1 5 1011.9 - 0.2
24/12:30am 8.6 6.9 8.4 99 0.1 WSW 7 9 4 5 1012.0 - 0.2
24/12:12am 8.1 7.2 7.7 97 0.2 WSW 2 7 1 4 1012.1 - 0.2
24/12:00am 8.3 7.5 8.1 99 0.1 W 2 6 1 3 1012.2 1012.2 0.2
 
Date/Time
EST
Temp
°C
App
Temp
°C
Dew
Point
Rel
Hum
%
Delta-T
°C
Wind Press
QNH
hPa
Press
MSL
hPa
Rain
since 9 am
mm
Dir
 
Spd
km/h
Gust
km/h
Spd
kts
Gust
kts
23/11:30pm 8.8 6.3 8.2 96 0.3 WNW 11 13 6 7 1012.4 - 0.2
23/11:00pm 9.3 6.6 8.9 97 0.2 W 13 15 7 8 1012.8 - 0.2
23/10:30pm 9.5 7.6 8.9 96 0.3 NW 9 11 5 6 1012.9 - 0.2
23/10:00pm 9.4 7.8 8.8 96 0.3 NW 7 9 4 5 1013.1 - 0.2
23/09:30pm 9.5 7.9 8.9 96 0.3 NNW 7 9 4 5 1013.4 - 0.2
23/09:00pm 10.5 9.2 9.1 91 0.7 W 6 9 3 5 1013.5 1013.5 0.2
23/08:30pm 10.3 8.7 8.9 91 0.7 NW 7 9 4 5 1013.7 - 0.2
23/08:00pm 11.2 9.4 9.6 90 0.8 NW 9 9 5 5 1013.9 - 0.2
23/07:30pm 11.7 10.1 10.3 91 0.7 NNW 9 11 5 6 1014.0 - 0.2
23/07:00pm 12.4 12.1 11.5 94 0.5 NNE 4 7 2 4 1013.8 - 0.2
23/06:30pm 13.4 13.9 11.5 88 1.0 CALM 0 4 0 2 1013.7 - 0.2
23/06:00pm 14.1 14.4 12.3 89 1.0 NNE 2 7 1 4 1013.5 1013.5 0.2
23/05:30pm 16.3 16.2 12.1 76 2.3 ENE 4 7 2 4 1013.6 - 0.2
23/05:00pm 16.6 16.4 13.0 79 2.0 ENE 6 9 3 5 1013.2 - 0.2
23/04:30pm 17.6 17.1 12.0 69 3.1 ENE 6 9 3 5 1013.3 - 0.2
23/04:00pm 18.5 16.7 10.7 60 4.2 WSW 11 13 6 7 1013.4 - 0.2
23/03:32pm 18.9 16.7 12.0 64 3.8 WSW 15 20 8 11 1013.5 - 0.2
23/03:30pm 19.2 16.7 11.1 59 4.4 WSW 15 20 8 11 1013.5 - 0.2
23/03:00pm 18.5 17.0 12.0 66 3.6 WSW 11 15 6 8 1013.4 1013.4 0.2
23/02:47pm 18.3 16.7 11.7 65 3.6 W 11 19 6 10 1013.5 - 0.2
23/02:30pm 18.2 17.2 12.2 68 3.3 W 9 13 5 7 1013.5 - 0.2
23/02:26pm 18.2 17.1 11.8 66 3.5 W 9 13 5 7 1013.5 - 0.2
23/02:00pm 18.7 18.2 12.6 67 3.4 SSE 7 13 4 7 1013.5 - 0.2
23/01:30pm 18.2 17.6 12.4 69 3.2 SE 7 11 4 6 1013.7 - 0.2
23/01:00pm 17.9 17.5 13.1 73 2.7 S 7 9 4 5 1014.0 - 0.2
23/12:43pm 17.7 17.5 13.5 76 2.4 E 7 11 4 6 1014.4 - 0.2
23/12:30pm 16.8 16.4 13.0 78 2.1 SE 7 11 4 6 1014.6 - 0.2
23/12:00pm 16.1 15.0 13.0 82 1.7 SSE 11 15 6 8 1015.2 1015.2 0.2
23/11:56am 16.1 15.3 12.9 81 1.8 ESE 9 15 5 8 1015.3 - 0.2
23/11:31am 16.2 15.1 13.2 82 1.7 N 11 15 6 8 1015.8 - 0.2
23/11:30am 16.3 15.3 13.3 82 1.7 N 11 15 6 8 1015.8 - 0.2
23/11:00am 16.1 15.3 12.9 81 1.8 NE 9 13 5 7 1016.0 - 0.0
23/10:30am 15.5 14.6 12.6 83 1.6 NE 9 13 5 7 1016.2 - 0.0
23/10:12am 15.2 14.8 12.3 83 1.6 NNW 6 11 3 6 1016.5 - 0.0
23/10:00am 15.4 14.9 12.7 84 1.5 N 7 11 4 6 1016.7 - 0.0
23/09:30am 14.9 14.0 12.5 85 1.3 NNW 9 11 5 6 1016.8 - 0.0
23/09:03am 14.7 13.6 12.1 84 1.4 NNW 9 11 5 6 1016.7 - 0.0
23/09:00am 14.8 13.9 12.6 87 1.2 NNW 9 11 5 6 1016.8 1016.8 1.8
23/08:30am 14.1 13.7 12.4 89 0.9 NNW 6 7 3 4 1016.8 - 1.8
23/08:07am 13.7 13.2 12.6 93 0.6 W 7 9 4 5 1016.9 - 1.8
23/08:02am 13.6 13.1 12.5 93 0.6 W 7 9 4 5 1017.0 - 1.8
23/08:00am 13.6 13.2 12.5 93 0.6 WNW 6 9 3 5 1017.0 - 1.8
23/07:30am 13.2 13.6 12.6 96 0.3 NW 2 6 1 3 1016.8 - 1.8
23/07:00am 13.1 13.9 12.4 95 0.4 CALM 0 6 0 3 1016.8 - 1.8
23/06:30am 13.0 13.8 12.4 96 0.3 CALM 0 0 0 0 1016.6 - 1.8
23/06:11am 13.0 13.0 12.3 95 0.4 E 4 9 2 5 1016.6 - 1.8
23/06:00am 12.9 13.6 12.3 96 0.3 CALM 0 0 0 0 1016.7 1016.7 1.8
23/05:59am 12.9 13.6 12.3 96 0.3 CALM 0 0 0 0 1016.7 - 1.8
23/05:30am 12.9 13.6 12.3 96 0.3 CALM 0 0 0 0 1016.8 - 1.8
23/05:00am 12.9 13.6 12.3 96 0.3 CALM 0 0 0 0 1016.9 - 1.8
23/04:45am 12.9 13.6 12.3 96 0.3 CALM 0 0 0 0 1016.9 - 1.8
23/04:39am 12.9 13.6 12.3 96 0.3 CALM 0 0 0 0 1016.9 - 1.8
23/04:30am 12.9 13.6 12.3 96 0.3 CALM 0 0 0 0 1016.9 - 1.8
23/04:00am 13.0 13.7 12.3 95 0.4 CALM 0 6 0 3 1016.8 - 1.8
23/03:30am 13.0 12.6 12.3 95 0.4 NW 6 7 3 4 1016.9 - 1.8
23/03:01am 13.0 12.4 12.3 95 0.4 WNW 7 7 4 4 1016.9 - 1.8
23/03:00am 13.0 12.4 12.3 95 0.4 WNW 7 7 4 4 1016.9 1016.9 1.8
23/02:30am 13.1 12.5 12.2 94 0.5 NNW 7 7 4 4 1017.1 - 1.8
23/02:00am 13.2 12.2 12.3 94 0.5 WNW 9 11 5 6 1017.5 - 1.8
23/01:30am 13.3 12.7 12.4 94 0.5 NW 7 11 4 6 1017.8 - 1.8
23/01:00am 13.3 12.8 12.6 95 0.4 NNW 7 11 4 6 1017.8 - 1.6
23/12:30am 13.4 12.9 12.7 95 0.4 NNW 7 9 4 5 1017.9 - 1.6
23/12:01am 13.5 12.6 12.6 94 0.5 NNW 9 9 5 5 1018.0 - 1.6
23/12:00am 13.5 12.6 12.6 94 0.5 NNW 9 11 5 6 1018.0 1018.0 1.6
 
Date/Time
EST
Temp
°C
App
Temp
°C
Dew
Point
Rel
Hum
%
Delta-T
°C
Wind Press
QNH
hPa
Press
MSL
hPa
Rain
since 9 am
mm
Dir
 
Spd
km/h
Gust
km/h
Spd
kts
Gust
kts
22/11:59pm 13.5 12.7 12.8 95 0.4 NNW 9 11 5 6 1018.0 - 1.6
22/11:49pm 13.5 12.7 12.8 95 0.4 NNW 9 11 5 6 1017.9 - 1.6
22/11:40pm 13.5 12.7 12.8 95 0.4 NNW 9 11 5 6 1017.9 - 1.6
22/11:30pm 13.5 12.3 12.8 95 0.4 NNW 11 13 6 7 1018.1 - 1.6
22/11:19pm 13.5 12.7 12.8 95 0.4 NNW 9 13 5 7 1018.0 - 1.6
22/11:06pm 13.4 12.5 12.7 95 0.4 NNW 9 11 5 6 1018.1 - 1.6
22/11:00pm 13.4 12.4 12.3 93 0.6 NW 9 11 5 6 1018.0 - 1.6
22/10:30pm 13.1 12.2 11.4 89 0.9 WNW 7 11 4 6 1018.0 - 1.6
22/10:25pm 13.0 11.7 11.3 89 0.9 NW 9 11 5 6 1018.0 - 1.6
22/10:21pm 12.8 11.5 11.3 91 0.8 NW 9 11 5 6 1018.0 - 1.6
22/10:11pm 13.1 11.8 11.4 89 0.9 NW 9 9 5 5 1017.9 - 1.6
22/10:09pm 13.1 12.2 11.4 89 0.9 NW 7 9 4 5 1017.9 - 1.6
22/10:00pm 13.3 12.4 11.4 88 1.0 NW 7 9 4 5 1017.9 - 1.6
22/09:30pm 13.5 12.3 11.6 88 1.0 W 9 11 5 6 1017.8 - 1.6
22/09:00pm 13.7 12.1 11.4 86 1.2 WSW 11 17 6 9 1017.5 1017.5 1.6
22/08:30pm 13.9 12.3 11.5 85 1.3 SW 11 15 6 8 1017.3 - 1.6
22/08:18pm 14.0 11.7 11.6 85 1.3 SW 15 19 8 10 1017.2 - 1.6
22/08:00pm 14.2 11.1 12.2 88 1.1 SSW 20 28 11 15 1017.2 - 1.6
22/07:46pm 14.5 11.8 12.9 90 0.9 SSW 19 26 10 14 1017.1 - 1.6
22/07:30pm 14.8 12.6 13.2 90 0.9 SW 17 20 9 11 1016.9 - 1.6
22/07:15pm 14.9 13.5 13.3 90 0.9 WSW 13 19 7 10 1016.7 - 1.6
22/07:13pm 15.0 13.2 13.2 89 1.0 WSW 15 20 8 11 1016.6 - 1.6
22/07:00pm 15.2 13.7 13.0 87 1.2 W 13 19 7 10 1016.4 - 1.6
22/06:30pm 15.0 13.6 13.4 90 0.9 W 13 15 7 8 1015.9 - 1.6
22/06:01pm 15.3 12.7 13.1 87 1.2 WSW 19 26 10 14 1015.5 - 1.4
22/06:00pm 15.3 12.7 13.1 87 1.2 WSW 19 26 10 14 1015.5 1015.5 1.4
22/05:30pm 15.2 12.7 13.6 90 0.9 SW 19 26 10 14 1015.0 - 1.4
22/05:00pm 15.6 13.5 13.6 88 1.1 WSW 17 24 9 13 1014.7 - 0.4
22/04:30pm 16.2 13.9 13.0 81 1.8 WSW 17 28 9 15 1014.6 - 0.0
22/04:00pm 17.0 15.3 12.5 75 2.5 WSW 13 19 7 10 1014.2 - 0.0
22/03:30pm 17.4 15.8 12.7 74 2.6 SW 13 19 7 10 1014.2 - 0.0
22/03:10pm 17.7 17.0 13.1 74 2.6 SSW 9 13 5 7 1014.0 - 0.0
22/03:00pm 17.6 17.1 13.9 79 2.1 S 9 11 5 6 1014.0 1014.0 0.0
22/02:30pm 17.6 17.2 12.4 71 2.9 SSW 6 7 3 4 1013.9 - 0.0
22/02:00pm 17.2 17.2 13.7 80 2.0 S 6 7 3 4 1013.9 - 0.0
22/01:30pm 17.5 17.0 12.6 73 2.7 SW 7 9 4 5 1013.9 - 0.0
22/01:17pm 17.3 17.2 13.4 78 2.2 WNW 6 7 3 4 1013.9 - 0.0
22/01:00pm 16.6 16.1 12.6 77 2.2 N 7 11 4 6 1014.3 - 0.0
22/12:30pm 16.7 14.6 12.5 76 2.3 N 15 19 8 10 1014.5 - 0.0
22/12:00pm 16.9 15.7 12.8 77 2.3 W 11 13 6 7 1015.5 1015.5 0.0
22/11:30am 17.1 15.5 11.6 70 3.0 WNW 11 15 6 8 1015.6 - 0.0
22/11:00am 17.6 15.5 11.3 66 3.4 W 13 17 7 9 1015.5 - 0.0
22/10:30am 17.5 16.0 10.4 63 3.8 W 9 13 5 7 1015.7 - 0.0
22/10:00am 17.2 13.8 10.4 64 3.6 SW 19 28 10 15 1016.6 - 0.0
22/09:30am 17.7 13.1 8.1 53 4.9 W 22 30 12 16 1016.7 - 0.0
22/09:13am 18.1 15.3 8.4 53 5.0 W 13 17 7 9 1016.4 - 0.0
22/09:00am 18.2 15.7 8.0 51 5.2 W 11 13 6 7 1016.1 1016.1 0.0
22/08:30am 17.6 14.6 7.7 52 5.0 WNW 13 20 7 11 1015.9 - 0.0
22/08:00am 16.3 13.8 8.2 58 4.1 WSW 11 15 6 8 1015.8 - 0.0
22/07:30am 16.5 13.8 7.5 55 4.5 WNW 11 15 6 8 1015.3 - 0.0
22/07:00am 16.7 12.4 7.0 52 4.8 W 19 24 10 13 1014.7 - 0.0
22/06:30am 16.6 13.1 7.4 54 4.6 WNW 15 17 8 9 1013.6 - 0.0
22/06:00am 17.0 14.2 6.9 51 5.0 SW 11 13 6 7 1013.5 1013.5 0.0
22/05:30am 16.7 13.1 6.8 52 4.9 WSW 15 20 8 11 1013.5 - 0.0
22/05:00am 14.0 12.7 9.1 72 2.5 SSW 6 13 3 7 1012.9 - 0.0
22/04:30am 13.7 13.7 9.8 77 2.0 CALM 0 0 0 0 1012.6 - 0.0
22/04:00am 13.4 13.5 10.3 81 1.6 CALM 0 0 0 0 1012.7 - 0.0
22/03:30am 14.2 13.4 8.0 66 3.1 NNE 2 6 1 3 1012.8 - 0.0
22/03:00am 13.4 13.2 9.0 75 2.2 CALM 0 4 0 2 1012.9 1012.9 0.0
22/02:30am 13.2 11.6 8.8 74 2.2 N 7 13 4 7 1013.3 - 0.0
22/02:00am 13.5 11.4 8.1 70 2.7 N 9 11 5 6 1013.4 - 0.0
22/01:30am 12.9 11.8 9.8 81 1.6 N 6 9 3 5 1013.7 - 0.0
22/01:00am 13.0 11.6 9.5 79 1.8 NW 7 9 4 5 1014.1 - 0.0
22/12:30am 12.0 10.7 10.0 87 1.0 WNW 7 9 4 5 1014.3 - 0.0

Other Formats:

Comma delimited format used in spreadsheet applications
http://www.bom.gov.au/fwo/IDV60801/IDV60801.94907.axf

JavaScript Object Notation format (JSON) in row-major order
http://www.bom.gov.au/fwo/IDV60801/IDV60801.94907.json